createdAt,value
2017-09-25T00:02:23.322Z,15.70
2017-09-25T00:04:50.836Z,15.98
2017-09-25T00:07:18.369Z,16.67
2017-09-25T00:09:45.870Z,14.65
2017-09-25T00:12:14.171Z,17.42
2017-09-25T00:14:41.685Z,15.90
2017-09-25T00:17:09.205Z,14.73
2017-09-25T00:19:36.710Z,13.80
2017-09-25T00:22:04.229Z,14.80
2017-09-25T00:24:31.727Z,15.85
2017-09-25T00:26:59.258Z,17.27
2017-09-25T00:29:26.774Z,16.60
2017-09-25T00:31:55.062Z,15.48
2017-09-25T00:34:22.614Z,18.33
2017-09-25T00:36:50.888Z,19.83
2017-09-25T00:39:19.159Z,13.52
2017-09-25T00:41:47.443Z,17.30
2017-09-25T00:44:15.717Z,14.18
2017-09-25T00:46:44.009Z,15.80
2017-09-25T00:49:11.532Z,15.77
2017-09-25T00:51:39.062Z,16.58
2017-09-25T00:54:06.557Z,13.40
2017-09-25T00:56:34.079Z,14.32
2017-09-25T00:59:01.592Z,12.32
2017-09-25T01:01:40.933Z,15.63
2017-09-25T01:04:21.099Z,16.98
2017-09-25T01:06:48.644Z,16.12
2017-09-25T01:09:16.950Z,14.02
2017-09-25T01:11:44.455Z,16.40
2017-09-25T01:14:11.969Z,14.15
2017-09-25T01:16:39.474Z,17.25
2017-09-25T01:19:07.010Z,16.02
2017-09-25T01:21:34.529Z,15.13
2017-09-25T01:24:02.060Z,15.05
2017-09-25T01:26:30.349Z,13.07
2017-09-25T01:28:58.638Z,14.15
2017-09-25T01:31:26.150Z,17.23
2017-09-25T01:33:53.684Z,16.73
2017-09-25T01:36:21.215Z,14.95
2017-09-25T01:38:48.729Z,13.73
2017-09-25T01:41:16.230Z,13.35
2017-09-25T01:43:44.634Z,15.52
2017-09-25T01:46:12.139Z,22.40
2017-09-25T01:48:39.663Z,15.80
2017-09-25T01:51:07.158Z,18.05
2017-09-25T01:53:34.678Z,15.77
2017-09-25T01:56:02.229Z,13.65
2017-09-25T01:58:29.773Z,15.50
2017-09-25T02:00:57.286Z,14.35
2017-09-25T02:03:24.786Z,15.25
2017-09-25T02:05:52.302Z,16.40
2017-09-25T02:08:19.805Z,16.33
2017-09-25T02:10:47.318Z,12.07
2017-09-25T02:13:14.822Z,13.10
2017-09-25T02:15:42.338Z,13.15
2017-09-25T02:18:09.846Z,12.13
2017-09-25T02:20:37.370Z,13.05
2017-09-25T02:23:04.886Z,12.32
2017-09-25T02:25:32.406Z,12.77
2017-09-25T02:28:00.683Z,15.40
2017-09-25T02:30:28.973Z,14.30
2017-09-25T02:32:56.482Z,13.32
2017-09-25T02:35:24.012Z,13.13
2017-09-25T02:37:51.532Z,13.05
2017-09-25T02:40:19.822Z,13.32
2017-09-25T02:42:47.339Z,12.77
2017-09-25T02:45:14.862Z,13.82
2017-09-25T02:47:42.362Z,14.30
2017-09-25T02:50:09.890Z,12.85
2017-09-25T02:52:37.406Z,17.48
2017-09-25T02:55:05.719Z,14.30
2017-09-25T02:57:33.232Z,14.55
2017-09-25T03:00:00.739Z,16.17
2017-09-25T03:02:28.272Z,12.60
2017-09-25T03:04:55.787Z,14.75
2017-09-25T03:07:23.308Z,15.02
2017-09-25T03:09:50.822Z,17.52
2017-09-25T03:12:18.342Z,15.60
2017-09-25T03:14:45.863Z,12.80
2017-09-25T03:17:14.166Z,14.18
2017-09-25T03:19:41.695Z,13.32
2017-09-25T03:22:09.979Z,12.45
2017-09-25T03:24:38.245Z,14.20
2017-09-25T03:27:05.769Z,13.20
2017-09-25T03:29:33.301Z,18.12
2017-09-25T03:32:00.823Z,14.95
2017-09-25T03:34:29.098Z,15.38
2017-09-25T03:36:57.389Z,15.02
2017-09-25T03:39:25.654Z,15.15
2017-09-25T03:41:53.944Z,15.25
2017-09-25T03:44:21.567Z,15.93
2017-09-25T03:46:49.094Z,14.45
2017-09-25T03:49:16.603Z,14.82
2017-09-25T03:51:44.931Z,15.40
2017-09-25T03:54:12.429Z,15.30
2017-09-25T03:56:40.007Z,13.95
2017-09-25T03:59:08.297Z,12.15
2017-09-25T04:01:36.563Z,17.02
2017-09-25T04:04:04.859Z,16.25
2017-09-25T04:06:32.410Z,15.63
2017-09-25T04:08:59.943Z,21.33
2017-09-25T04:11:27.468Z,15.52
2017-09-25T04:13:55.005Z,13.57
2017-09-25T04:16:22.501Z,15.32
2017-09-25T04:18:50.045Z,14.85
2017-09-25T04:21:17.565Z,15.60
2017-09-25T04:23:45.133Z,16.23
2017-09-25T04:26:12.650Z,26.27
2017-09-25T04:28:40.170Z,20.70
2017-09-25T04:31:07.674Z,14.75
2017-09-25T04:33:35.198Z,15.20
2017-09-25T04:36:02.705Z,18.62
2017-09-25T04:38:31.006Z,21.00
2017-09-25T04:40:58.527Z,22.05
2017-09-25T04:43:26.059Z,24.73
2017-09-25T04:45:53.576Z,25.92
2017-09-25T04:48:21.105Z,23.30
2017-09-25T04:50:48.613Z,19.83
2017-09-25T04:53:16.925Z,21.05
2017-09-25T04:55:44.430Z,21.70
2017-09-25T04:58:11.954Z,28.92
2017-09-25T05:00:39.478Z,18.15
2017-09-25T05:03:06.974Z,25.12
2017-09-25T05:05:34.498Z,19.45
2017-09-25T05:08:02.011Z,22.27
2017-09-25T05:10:29.549Z,22.62
2017-09-25T05:12:57.818Z,20.92
2017-09-25T05:15:25.367Z,21.45
2017-09-25T05:17:52.907Z,24.02
2017-09-25T05:20:21.186Z,22.80
2017-09-25T05:22:48.703Z,26.12
2017-09-25T05:25:16.226Z,24.80
2017-09-25T05:27:43.730Z,22.60
2017-09-25T05:30:11.241Z,24.23
2017-09-25T05:32:38.754Z,24.98
2017-09-25T05:35:06.279Z,24.65
2017-09-25T05:37:33.786Z,23.12
2017-09-25T05:40:02.080Z,22.27
2017-09-25T05:42:29.585Z,22.65
2017-09-25T05:44:57.118Z,24.12
2017-09-25T05:47:24.622Z,23.65
2017-09-25T05:49:52.142Z,19.62
2017-09-25T05:52:19.638Z,24.90
2017-09-25T05:54:47.165Z,22.80
2017-09-25T05:57:14.682Z,24.05
2017-09-25T05:59:42.955Z,21.83
2017-09-25T06:02:11.242Z,23.52
2017-09-25T06:04:38.750Z,23.38
2017-09-25T06:07:06.277Z,26.85
2017-09-25T06:09:33.787Z,26.55
2017-09-25T06:12:02.085Z,20.92
2017-09-25T06:14:29.622Z,25.37
2017-09-25T06:16:57.913Z,23.20
2017-09-25T06:19:26.185Z,26.70
2017-09-25T06:21:54.465Z,28.15
2017-09-25T06:24:22.739Z,24.08
2017-09-25T06:26:51.031Z,27.65
2017-09-25T06:29:18.539Z,30.37
2017-09-25T06:31:46.071Z,26.90
2017-09-25T06:34:13.571Z,25.27
2017-09-25T06:36:41.107Z,28.38
2017-09-25T06:39:08.626Z,27.42
2017-09-25T06:41:36.147Z,31.98
2017-09-25T06:44:03.655Z,34.75
2017-09-25T06:46:31.179Z,28.15
2017-09-25T06:48:58.690Z,29.67
2017-09-25T06:51:26.226Z,33.25
2017-09-25T06:53:53.739Z,27.30
2017-09-25T06:56:21.251Z,28.08
2017-09-25T06:58:48.780Z,30.65
2017-09-25T07:01:16.318Z,29.35
2017-09-25T07:03:43.845Z,28.17
2017-09-25T07:06:11.385Z,32.00
2017-09-25T07:08:38.898Z,26.02
2017-09-25T07:11:06.403Z,25.30
2017-09-25T07:13:33.927Z,29.08
2017-09-25T07:16:01.438Z,25.95
2017-09-25T07:18:28.978Z,30.35
2017-09-25T07:20:56.494Z,28.62
2017-09-25T07:23:24.018Z,26.12
2017-09-25T07:25:52.294Z,28.85
2017-09-25T07:28:20.606Z,26.90
2017-09-25T07:30:48.106Z,28.98
2017-09-25T07:33:15.642Z,28.17
2017-09-25T07:35:43.921Z,24.95
2017-09-25T07:38:11.445Z,23.98
2017-09-25T07:40:39.717Z,23.75
2017-09-25T07:43:08.009Z,26.42
2017-09-25T07:45:35.522Z,26.62
2017-09-25T07:48:03.815Z,26.45
2017-09-25T07:50:31.327Z,23.42
2017-09-25T07:52:58.841Z,33.75
2017-09-25T07:55:27.124Z,35.58
2017-09-25T07:57:55.418Z,34.97
2017-09-25T08:00:22.958Z,32.95
2017-09-25T08:02:51.225Z,36.83
2017-09-25T08:05:18.750Z,41.20
2017-09-25T08:07:46.262Z,42.67
2017-09-25T08:10:14.568Z,35.63
2017-09-25T08:12:42.081Z,41.90
2017-09-25T08:15:10.389Z,43.70
2017-09-25T08:17:37.889Z,45.65
2017-09-25T08:20:05.423Z,40.78
2017-09-25T08:22:32.930Z,43.90
2017-09-25T08:25:00.459Z,38.20
2017-09-25T08:27:27.970Z,38.88
2017-09-25T08:29:56.246Z,30.33
2017-09-25T08:32:24.522Z,28.33
2017-09-25T08:34:52.803Z,31.90
2017-09-25T08:37:21.114Z,29.48
2017-09-25T08:39:48.642Z,33.03
2017-09-25T08:42:16.171Z,29.67
2017-09-25T08:44:43.704Z,32.30
2017-09-25T08:47:11.215Z,30.98
2017-09-25T08:49:38.755Z,33.35
2017-09-25T08:52:06.259Z,36.75
2017-09-25T08:54:33.773Z,34.65
2017-09-25T08:57:01.289Z,33.58
2017-09-25T08:59:28.791Z,30.60
2017-09-25T09:01:56.319Z,35.33
2017-09-25T09:04:23.837Z,29.95
2017-09-25T09:06:52.118Z,33.60
2017-09-25T09:09:19.626Z,34.88
2017-09-25T09:11:47.147Z,30.70
2017-09-25T09:14:14.663Z,28.80
2017-09-25T09:16:42.186Z,34.63
2017-09-25T09:19:09.682Z,29.67
2017-09-25T09:21:37.215Z,31.80
2017-09-25T09:24:04.714Z,24.45
2017-09-25T09:26:33.003Z,25.42
2017-09-25T09:29:01.267Z,27.40
2017-09-25T09:31:29.557Z,27.55
2017-09-25T09:33:57.078Z,29.80
2017-09-25T09:36:24.609Z,24.60
2017-09-25T09:38:52.113Z,26.37
2017-09-25T09:41:20.430Z,33.60
2017-09-25T09:43:47.943Z,26.55
2017-09-25T09:46:15.594Z,28.52
2017-09-25T09:48:43.177Z,27.17
2017-09-25T09:51:11.478Z,28.83
2017-09-25T09:53:39.002Z,26.35
2017-09-25T09:56:06.510Z,28.70
2017-09-25T09:58:34.038Z,23.27
2017-09-25T10:01:02.308Z,27.00
2017-09-25T10:03:30.591Z,23.17
2017-09-25T10:05:58.926Z,26.83
2017-09-25T10:08:26.446Z,27.10
2017-09-25T10:10:53.978Z,25.02
2017-09-25T10:13:23.476Z,23.12
2017-09-25T10:15:50.983Z,24.75
2017-09-25T10:18:18.498Z,29.33
2017-09-25T10:20:46.043Z,25.10
2017-09-25T10:23:13.574Z,29.15
2017-09-25T10:25:41.071Z,28.95
2017-09-25T10:28:08.603Z,31.30
2017-09-25T10:30:36.122Z,25.83
2017-09-25T10:33:03.642Z,28.27
2017-09-25T10:35:31.154Z,25.37
2017-09-25T10:37:58.675Z,31.60
2017-09-25T10:40:26.174Z,23.62
2017-09-25T10:42:53.690Z,22.30
2017-09-25T10:45:21.197Z,23.25
2017-09-25T10:47:48.730Z,24.92
2017-09-25T10:50:16.990Z,23.73
2017-09-25T10:52:45.871Z,22.02
2017-09-25T10:55:13.390Z,22.83
2017-09-25T10:57:40.894Z,23.48
2017-09-25T11:00:08.423Z,19.77
2017-09-25T11:02:35.922Z,19.80
2017-09-25T11:05:03.447Z,20.58
2017-09-25T11:07:30.951Z,20.95
2017-09-25T11:09:58.483Z,19.20
2017-09-25T11:12:25.994Z,16.87
2017-09-25T11:14:53.518Z,14.68
2017-09-25T11:17:21.797Z,15.60
2017-09-25T11:19:50.155Z,14.52
2017-09-25T11:22:17.662Z,14.87
2017-09-25T11:24:45.174Z,16.20
2017-09-25T11:27:12.696Z,12.40
2017-09-25T11:29:40.218Z,15.82
2017-09-25T11:32:08.487Z,11.50
2017-09-25T11:34:36.762Z,16.52
2017-09-25T11:37:05.038Z,10.02
2017-09-25T11:39:33.329Z,11.25
2017-09-25T11:42:00.834Z,11.45
2017-09-25T11:44:28.350Z,9.88
2017-09-25T11:46:55.855Z,9.35
2017-09-25T11:49:23.381Z,10.77
2017-09-25T11:51:50.890Z,12.75
2017-09-25T11:54:18.396Z,11.68
2017-09-25T11:56:45.955Z,11.82
2017-09-25T11:59:13.471Z,9.02
2017-09-25T12:01:40.986Z,9.50
2017-09-25T12:04:08.490Z,9.73
2017-09-25T12:06:36.022Z,12.45
2017-09-25T12:09:03.525Z,11.20
2017-09-25T12:11:32.020Z,9.65
2017-09-25T12:13:59.527Z,10.13
2017-09-25T12:16:27.046Z,11.95
2017-09-25T12:18:54.569Z,10.82
2017-09-25T12:21:22.098Z,11.43
2017-09-25T12:23:49.597Z,12.98
2017-09-25T12:26:19.108Z,9.40
2017-09-25T12:28:46.647Z,9.65
2017-09-25T12:31:14.158Z,9.60
2017-09-25T12:33:41.663Z,9.77
2017-09-25T12:36:09.175Z,9.10
2017-09-25T12:38:36.682Z,11.45
2017-09-25T12:41:04.215Z,9.75
2017-09-25T12:43:31.728Z,11.18
2017-09-25T12:45:59.254Z,14.15
2017-09-25T12:48:26.772Z,10.68
2017-09-25T12:50:54.270Z,8.77
2017-09-25T12:53:21.802Z,16.02
2017-09-25T12:55:49.299Z,11.43
2017-09-25T12:58:16.823Z,10.60
2017-09-25T13:00:44.316Z,9.55
2017-09-25T13:03:11.846Z,13.15
2017-09-25T13:05:39.365Z,13.30
2017-09-25T13:08:06.886Z,11.90
2017-09-25T13:10:34.404Z,13.40
2017-09-25T13:13:02.076Z,13.27
2017-09-25T13:15:29.589Z,11.85
2017-09-25T13:17:57.124Z,14.80
2017-09-25T13:20:24.634Z,16.02
2017-09-25T13:22:52.141Z,14.82
2017-09-25T13:25:19.650Z,11.15
2017-09-25T13:27:47.178Z,11.07
2017-09-25T13:30:14.704Z,12.63
2017-09-25T13:32:42.256Z,12.60
2017-09-25T13:35:09.838Z,14.77
2017-09-25T13:37:37.358Z,13.93
2017-09-25T13:40:04.987Z,13.07
2017-09-25T13:42:33.352Z,12.93
2017-09-25T13:45:00.879Z,10.35
2017-09-25T13:47:28.411Z,11.32
2017-09-25T13:49:56.706Z,14.02
2017-09-25T13:52:24.207Z,12.77
2017-09-25T13:54:51.736Z,12.23
2017-09-25T13:57:19.235Z,11.68
2017-09-25T14:02:22.958Z,14.25
2017-09-25T14:04:50.499Z,18.73
2017-09-25T14:07:18.066Z,15.63
2017-09-25T14:09:45.654Z,13.40
2017-09-25T14:12:13.973Z,11.77
2017-09-25T14:14:41.555Z,15.05
2017-09-25T14:17:09.130Z,15.90
2017-09-25T14:19:36.719Z,15.05
2017-09-25T14:22:05.093Z,19.62
2017-09-25T14:24:33.436Z,14.27
2017-09-25T14:27:00.990Z,12.77
2017-09-25T14:29:28.570Z,15.00
2017-09-25T14:31:56.222Z,14.02
2017-09-25T14:34:23.790Z,14.05
2017-09-25T14:36:51.350Z,12.15
2017-09-25T14:39:18.939Z,11.63
2017-09-25T14:41:47.282Z,12.98
2017-09-25T14:44:14.881Z,13.13
2017-09-25T14:46:42.438Z,14.93
2017-09-25T14:49:10.778Z,14.65
2017-09-25T14:51:38.381Z,17.85
2017-09-25T14:54:06.721Z,16.25
2017-09-25T14:56:34.302Z,16.27
2017-09-25T14:59:01.876Z,21.05
2017-09-25T15:01:30.222Z,18.87
2017-09-25T15:03:57.782Z,16.23
2017-09-25T15:06:25.369Z,15.50
2017-09-25T15:08:52.987Z,18.80
2017-09-25T15:11:20.593Z,19.15
2017-09-25T15:13:48.160Z,15.38
2017-09-25T15:16:16.505Z,15.13
2017-09-25T15:18:44.074Z,16.27
2017-09-25T15:21:11.662Z,16.00
2017-09-25T15:23:40.003Z,15.85
2017-09-25T15:26:07.621Z,16.27
2017-09-25T15:28:35.173Z,20.70
2017-09-25T15:31:02.745Z,18.45
2017-09-25T15:33:30.315Z,18.52
2017-09-25T15:35:57.918Z,16.40
2017-09-25T15:38:25.481Z,14.35
2017-09-25T15:40:53.066Z,15.60
2017-09-25T15:43:21.401Z,14.25
2017-09-25T15:45:48.967Z,13.70
2017-09-25T15:48:16.534Z,16.40
2017-09-25T15:50:44.090Z,22.02
2017-09-25T15:53:11.678Z,16.25
2017-09-25T15:55:40.005Z,16.05
2017-09-25T15:58:07.598Z,21.12
2017-09-25T16:00:35.150Z,18.12
2017-09-25T16:03:02.735Z,15.27
2017-09-25T16:05:31.062Z,12.70
2017-09-25T16:07:58.644Z,13.15
2017-09-25T16:10:26.210Z,17.55
2017-09-25T16:12:54.019Z,14.80
2017-09-25T16:15:21.577Z,13.30
2017-09-25T16:17:49.154Z,27.40
2017-09-25T16:20:16.730Z,14.87
2017-09-25T16:22:44.315Z,18.27
2017-09-25T16:25:11.871Z,15.52
2017-09-25T16:27:39.457Z,15.35
2017-09-25T16:30:07.025Z,20.30
2017-09-25T16:32:35.376Z,14.98
2017-09-25T16:35:02.936Z,14.52
2017-09-25T16:37:30.521Z,15.38
2017-09-25T16:39:58.861Z,15.00
2017-09-25T16:42:26.510Z,19.50
2017-09-25T16:44:54.107Z,17.27
2017-09-25T16:47:21.678Z,15.63
2017-09-25T16:49:50.028Z,16.50
2017-09-25T16:52:17.616Z,17.52
2017-09-25T16:54:45.970Z,21.20
2017-09-25T16:57:13.529Z,17.30
2017-09-25T16:59:41.116Z,21.05
2017-09-25T17:02:09.447Z,16.80
2017-09-25T17:04:37.039Z,18.35
2017-09-25T17:07:04.620Z,22.33
2017-09-25T17:09:32.974Z,19.48
2017-09-25T17:12:00.534Z,19.45
2017-09-25T17:14:28.142Z,17.20
2017-09-25T17:16:55.777Z,20.85
2017-09-25T17:19:24.129Z,27.98
2017-09-25T17:21:51.687Z,28.67
2017-09-25T17:24:19.276Z,33.38
2017-09-25T17:26:47.607Z,22.62
2017-09-25T17:29:16.010Z,19.58
2017-09-25T17:31:43.566Z,19.92
2017-09-25T17:34:11.163Z,17.95
2017-09-25T17:36:39.534Z,21.83
2017-09-25T17:39:07.176Z,20.20
2017-09-25T17:41:34.875Z,22.65
2017-09-25T17:44:02.514Z,20.12
2017-09-25T17:46:30.585Z,23.25
2017-09-25T17:48:58.267Z,23.10
2017-09-25T17:51:26.609Z,30.35
2017-09-25T17:53:54.174Z,19.42
2017-09-25T17:56:21.759Z,22.00
2017-09-25T17:58:50.084Z,21.12
2017-09-25T18:01:17.667Z,24.10
2017-09-25T18:03:45.262Z,21.50
2017-09-25T18:06:13.602Z,30.85
2017-09-25T18:08:41.162Z,27.02
2017-09-25T18:11:08.752Z,22.77
2017-09-25T18:13:36.316Z,26.70
2017-09-25T18:16:04.670Z,21.85
2017-09-25T18:18:32.242Z,27.70
2017-09-25T18:20:59.831Z,30.10
2017-09-25T18:23:27.385Z,27.48
2017-09-25T18:25:55.734Z,46.08
2017-09-25T18:28:23.323Z,49.35
2017-09-25T18:30:51.670Z,37.53
2017-09-25T18:33:19.266Z,31.00
2017-09-25T18:35:47.637Z,28.55
2017-09-25T18:38:15.977Z,30.62
2017-09-25T18:40:43.539Z,30.83
2017-09-25T18:43:11.127Z,28.58
2017-09-25T18:45:38.718Z,25.58
2017-09-25T18:48:06.290Z,28.25
2017-09-25T18:50:33.919Z,29.52
2017-09-25T18:53:01.494Z,33.50
2017-09-25T18:55:29.093Z,32.03
2017-09-25T18:57:56.697Z,32.28
2017-09-25T19:00:25.042Z,32.40
2017-09-25T19:02:52.624Z,40.78
2017-09-25T19:05:20.199Z,31.62
2017-09-25T19:07:48.542Z,37.75
2017-09-25T19:10:16.105Z,36.33
2017-09-25T19:12:43.694Z,34.05
2017-09-25T19:15:12.021Z,37.35
2017-09-25T19:17:39.606Z,30.50
2017-09-25T19:20:07.166Z,37.40
2017-09-25T19:22:34.757Z,36.75
2017-09-25T19:25:03.106Z,37.28
2017-09-25T19:27:30.694Z,35.88
2017-09-25T19:29:59.021Z,43.38
2017-09-25T19:32:26.632Z,38.55
2017-09-25T19:34:54.990Z,32.90
2017-09-25T19:37:22.572Z,40.65
2017-09-25T19:39:50.924Z,30.62
2017-09-25T19:42:18.478Z,40.03
2017-09-25T19:44:46.118Z,38.40
2017-09-25T19:47:13.702Z,39.78
2017-09-25T19:52:53.054Z,39.50
2017-09-25T19:58:25.242Z,29.85
2017-09-25T20:00:52.813Z,40.00
2017-09-25T20:03:20.383Z,29.35
2017-09-25T20:05:47.967Z,40.50
2017-09-25T20:08:16.562Z,27.77
2017-09-25T20:10:44.921Z,35.70
2017-09-25T20:13:12.496Z,28.98
2017-09-25T20:15:57.860Z,28.25
2017-09-25T20:18:25.446Z,29.08
2017-09-25T20:20:53.050Z,27.35
2017-09-25T20:23:20.658Z,28.42
2017-09-25T20:25:49.210Z,28.98
2017-09-25T20:28:16.781Z,25.62
2017-09-25T20:30:45.160Z,31.15
2017-09-25T20:33:12.735Z,33.40
2017-09-25T20:35:41.103Z,32.80
2017-09-25T20:38:08.726Z,29.20
2017-09-25T20:40:53.014Z,34.83
2017-09-25T20:43:24.286Z,32.40
2017-09-25T20:45:51.893Z,35.45
2017-09-25T20:48:19.463Z,33.17
2017-09-25T20:50:47.061Z,33.67
2017-09-25T20:53:14.635Z,40.15
2017-09-25T20:55:42.225Z,39.40
2017-09-25T20:58:09.794Z,36.42
2017-09-25T21:00:37.390Z,36.70
2017-09-25T21:03:04.971Z,36.22
2017-09-25T21:05:32.534Z,38.05
2017-09-25T21:08:00.118Z,37.28
2017-09-25T21:10:27.697Z,38.10
2017-09-25T21:12:56.075Z,39.88
2017-09-25T21:15:24.402Z,36.72
2017-09-25T21:17:51.999Z,37.20
2017-09-25T21:20:19.574Z,37.22
2017-09-25T21:22:47.169Z,37.40
2017-09-25T21:25:14.749Z,37.63
2017-09-25T21:27:42.877Z,39.25
2017-09-25T21:30:10.439Z,37.00
2017-09-25T21:32:38.031Z,37.65
2017-09-25T21:35:05.593Z,34.25
2017-09-25T21:37:33.182Z,33.30
2017-09-25T21:40:00.761Z,36.97
2017-09-25T21:42:28.349Z,40.38
2017-09-25T21:44:55.930Z,38.53
2017-09-25T21:47:23.506Z,37.05
2017-09-25T21:49:51.077Z,33.88
2017-09-25T21:52:18.674Z,36.58
2017-09-25T21:54:47.003Z,38.33
2017-09-25T21:57:14.565Z,33.42
2017-09-25T21:59:42.137Z,39.42
2017-09-25T22:02:09.702Z,32.60
2017-09-25T22:04:37.302Z,37.13
2017-09-25T22:07:05.622Z,34.67
2017-09-25T22:09:33.307Z,30.60
2017-09-25T22:12:00.927Z,33.13
2017-09-25T22:14:28.514Z,38.38
2017-09-25T22:16:56.090Z,37.28
2017-09-25T22:19:23.675Z,37.22
2017-09-25T22:21:52.005Z,33.17
2017-09-25T22:24:19.604Z,42.58
2017-09-25T22:26:47.205Z,35.97
2017-09-25T22:29:14.805Z,33.63
2017-09-25T22:31:42.361Z,35.90
2017-09-25T22:34:09.962Z,34.60
2017-09-25T22:36:37.537Z,41.83
2017-09-25T22:39:05.899Z,35.60
2017-09-25T22:41:34.226Z,33.53
2017-09-25T22:44:11.727Z,39.63
2017-09-25T22:46:39.293Z,33.47
2017-09-25T22:49:06.870Z,34.00
2017-09-25T22:51:34.451Z,34.33
2017-09-25T22:54:02.778Z,35.38
2017-09-25T22:56:30.354Z,36.05
2017-09-25T22:58:58.201Z,33.15
2017-09-25T23:01:26.552Z,32.50
2017-09-25T23:04:09.861Z,31.62
2017-09-25T23:06:38.227Z,31.17
2017-09-25T23:09:05.805Z,29.23
2017-09-25T23:11:33.414Z,37.85
2017-09-25T23:14:00.974Z,28.67
2017-09-25T23:16:28.559Z,35.38
2017-09-25T23:18:56.133Z,31.83
2017-09-25T23:21:23.738Z,30.08
2017-09-25T23:23:51.314Z,28.52
2017-09-25T23:26:18.890Z,28.30
2017-09-25T23:28:46.459Z,27.42
2017-09-25T23:31:17.868Z,27.55
2017-09-25T23:33:45.450Z,31.37
2017-09-25T23:36:13.049Z,26.27
2017-09-25T23:38:40.618Z,27.83
2017-09-25T23:41:09.002Z,25.83
2017-09-25T23:43:36.584Z,24.70
2017-09-25T23:46:04.150Z,28.17
2017-09-25T23:48:31.777Z,26.02
2017-09-25T23:50:59.337Z,29.48
2017-09-25T23:53:26.920Z,27.85
2017-09-25T23:55:54.487Z,26.95
2017-09-25T23:58:22.057Z,27.62
